Time;durP1;ratioP1;P1;durP2;ratioP2;P2;SDS_P1;SDS_P2;PMS_P1;PMS_P2;Temp;Humidity;BMP_temperature;BMP_pressure;BME280_temperature;BME280_humidity;BME280_pressure;Samples;Min_cycle;Max_cycle;Signal;HPM_P1;HPM_P2
2023/01/24 00:00:10;;;;;;;27.15;13.70;;;4.00;99.90;;;;;;5032708;28;20033;-75
2023/01/24 00:02:37;;;;;;;36.42;16.13;;;4.10;99.90;;;;;;5028283;28;20095;-74
2023/01/24 00:05:04;;;;;;;36.58;15.98;;;4.10;99.90;;;;;;5027468;28;20037;-73
2023/01/24 00:07:30;;;;;;;31.02;15.15;;;4.10;99.90;;;;;;5027603;28;20032;-74
2023/01/24 00:09:56;;;;;;;34.05;15.85;;;4.10;99.90;;;;;;5028271;28;20402;-74
2023/01/24 00:12:22;;;;;;;34.92;15.60;;;4.00;99.90;;;;;;5027397;28;20033;-75
2023/01/24 00:14:48;;;;;;;32.10;15.25;;;4.10;99.90;;;;;;5046303;28;20502;-74
2023/01/24 00:17:13;;;;;;;32.72;14.82;;;4.10;99.90;;;;;;5028762;28;20037;-74
2023/01/24 00:19:40;;;;;;;32.70;15.40;;;4.10;99.90;;;;;;5028220;28;20393;-74
2023/01/24 00:22:09;;;;;;;31.20;14.15;;;4.10;99.90;;;;;;5028619;28;20571;-75
2023/01/24 00:24:35;;;;;;;34.58;15.20;;;4.00;99.90;;;;;;5028804;28;20036;-74
2023/01/24 00:27:01;;;;;;;34.55;14.90;;;4.00;99.90;;;;;;5043471;28;20501;-74
2023/01/24 00:29:27;;;;;;;33.35;14.80;;;4.00;99.90;;;;;;5044823;28;20572;-73
2023/01/24 00:31:53;;;;;;;37.03;15.35;;;4.00;99.90;;;;;;5028824;28;20040;-74
2023/01/24 00:34:19;;;;;;;29.50;15.25;;;4.00;99.90;;;;;;5028558;28;20109;-74
2023/01/24 00:36:45;;;;;;;32.15;14.73;;;4.00;99.90;;;;;;5027193;28;20027;-74
2023/01/24 00:39:11;;;;;;;29.55;14.75;;;3.90;99.90;;;;;;5027756;28;20731;-76
2023/01/24 00:41:37;;;;;;;28.30;13.85;;;3.90;99.90;;;;;;5027239;28;20032;-74
2023/01/24 00:44:03;;;;;;;27.70;14.27;;;3.90;99.90;;;;;;5030932;28;20052;-74
2023/01/24 00:46:29;;;;;;;36.22;16.23;;;4.00;99.90;;;;;;5032179;28;20025;-74
2023/01/24 00:48:55;;;;;;;31.90;14.70;;;4.00;99.90;;;;;;5035286;28;20085;-74
2023/01/24 00:51:21;;;;;;;31.75;14.45;;;4.00;99.90;;;;;;5031269;28;20032;-75
2023/01/24 00:53:46;;;;;;;31.23;15.10;;;4.00;99.90;;;;;;5030150;28;20049;-74
2023/01/24 00:56:12;;;;;;;35.92;15.43;;;4.00;99.90;;;;;;5044102;28;20030;-75
2023/01/24 00:58:38;;;;;;;31.75;14.50;;;4.00;99.90;;;;;;5025252;28;20029;-74
2023/01/24 01:01:05;;;;;;;33.90;14.75;;;4.00;99.90;;;;;;5029703;28;20088;-74
2023/01/24 01:03:31;;;;;;;34.60;14.90;;;4.00;99.90;;;;;;5027530;28;20025;-74
2023/01/24 01:06:01;;;;;;;28.92;13.98;;;3.90;99.90;;;;;;5028430;28;20405;-74
2023/01/24 01:08:27;;;;;;;31.35;15.27;;;3.90;99.90;;;;;;5028575;28;20037;-74
2023/01/24 01:10:53;;;;;;;27.88;14.52;;;3.90;99.90;;;;;;5028316;28;20033;-74
2023/01/24 01:13:19;;;;;;;32.35;15.27;;;3.90;99.90;;;;;;5031018;28;20044;-75
2023/01/24 01:15:45;;;;;;;31.83;14.50;;;3.90;99.90;;;;;;5030324;28;20083;-74
2023/01/24 01:18:10;;;;;;;29.13;14.63;;;4.00;99.90;;;;;;5028588;28;20026;-74
2023/01/24 01:20:36;;;;;;;28.10;14.25;;;3.90;99.90;;;;;;5043707;28;20595;-80
2023/01/24 01:23:02;;;;;;;31.42;14.68;;;3.90;99.90;;;;;;5059286;28;20025;-78
2023/01/24 01:25:28;;;;;;;30.38;14.15;;;4.00;99.90;;;;;;5031335;28;20559;-77
2023/01/24 01:27:54;;;;;;;33.00;14.35;;;3.90;99.90;;;;;;5031303;28;20396;-78
2023/01/24 01:30:20;;;;;;;28.35;14.18;;;4.00;99.90;;;;;;5011199;28;20029;-76
2023/01/24 01:32:46;;;;;;;33.40;14.35;;;3.90;99.90;;;;;;5042899;28;20038;-73
2023/01/24 01:35:13;;;;;;;27.77;13.68;;;3.90;99.90;;;;;;5042824;28;20025;-79
2023/01/24 01:37:38;;;;;;;29.45;13.80;;;3.90;99.90;;;;;;5042966;28;20044;-74
2023/01/24 01:40:05;;;;;;;29.05;14.18;;;3.90;99.90;;;;;;5029326;28;20504;-76
2023/01/24 01:42:59;;;;;;;31.77;14.57;;;3.90;99.90;;;;;;5027033;28;20444;-75
2023/01/24 01:45:44;;;;;;;29.00;13.88;;;3.90;99.90;;;;;;5010753;28;20571;-77
2023/01/24 01:48:21;;;;;;;29.92;14.10;;;3.90;99.90;;;;;;5026575;28;20045;-75
2023/01/24 01:51:15;;;;;;;28.75;13.38;;;3.90;99.90;;;;;;5027955;28;20037;-74
2023/01/24 01:53:48;;;;;;;33.10;13.30;;;4.00;99.90;;;;;;5017041;28;20038;-80
2023/01/24 01:56:36;;;;;;;25.52;13.18;;;4.00;99.90;;;;;;5028653;28;20037;-74
2023/01/24 01:59:11;;;;;;;29.75;14.80;;;4.00;99.90;;;;;;5026093;28;20022;-75
2023/01/24 02:01:37;;;;;;;29.58;14.60;;;3.90;99.90;;;;;;5035164;28;20022;-76
2023/01/24 02:04:22;;;;;;;31.00;14.35;;;3.80;99.90;;;;;;5029562;28;20044;-77
2023/01/24 02:07:08;;;;;;;29.17;13.60;;;3.80;99.90;;;;;;5046090;28;20032;-74
2023/01/24 02:09:40;;;;;;;30.27;13.55;;;3.90;99.90;;;;;;5025391;28;20041;-75
2023/01/24 02:12:24;;;;;;;27.67;12.30;;;3.90;99.90;;;;;;5026022;28;20040;-75
2023/01/24 02:17:43;;;;;;;26.30;12.95;;;3.80;99.90;;;;;;5027653;28;20458;-74
2023/01/24 02:20:32;;;;;;;24.90;13.10;;;3.80;99.90;;;;;;5026106;28;20485;-78
2023/01/24 02:23:16;;;;;;;25.27;11.90;;;3.80;99.90;;;;;;5058259;28;20116;-74
2023/01/24 02:26:06;;;;;;;22.48;11.77;;;3.80;99.90;;;;;;5028156;28;20126;-74
2023/01/24 02:28:33;;;;;;;27.45;12.70;;;3.90;99.90;;;;;;5046704;28;20052;-75
2023/01/24 02:31:00;;;;;;;23.95;13.30;;;3.90;99.90;;;;;;5044886;28;20067;-78
2023/01/24 02:33:27;;;;;;;27.35;12.13;;;3.90;99.90;;;;;;5042324;28;20213;-74
2023/01/24 02:36:41;;;;;;;24.25;11.45;;;3.90;99.90;;;;;;5030810;28;20052;-78
2023/01/24 02:39:11;;;;;;;24.17;12.30;;;3.90;99.90;;;;;;5015292;28;20052;-74
2023/01/24 02:41:44;;;;;;;24.52;11.93;;;3.80;99.90;;;;;;5028575;28;20037;-75
2023/01/24 02:44:14;;;;;;;25.25;12.23;;;3.90;99.90;;;;;;5041856;28;20025;-75
2023/01/24 02:46:44;;;;;;;10.98;6.85;;;3.90;99.90;;;;;;5026761;28;20025;-75
2023/01/24 02:49:10;;;;;;;9.25;5.28;;;3.80;99.90;;;;;;5028005;28;20071;-75
2023/01/24 02:54:20;;;;;;;8.25;5.47;;;3.90;99.90;;;;;;5026195;28;20030;-75
2023/01/24 02:59:30;;;;;;;11.60;6.40;;;3.90;99.90;;;;;;5026729;28;20060;-75
2023/01/24 03:01:56;;;;;;;17.58;8.18;;;3.90;99.90;;;;;;5024965;28;20045;-75
2023/01/24 03:04:22;;;;;;;17.70;10.07;;;3.90;99.90;;;;;;5029441;28;20013;-76
2023/01/24 03:06:48;;;;;;;22.75;11.68;;;3.90;99.90;;;;;;5026253;28;20036;-76
2023/01/24 03:09:18;;;;;;;25.42;13.25;;;3.90;99.90;;;;;;5028676;28;20029;-75
2023/01/24 03:11:48;;;;;;;22.92;11.43;;;3.90;99.90;;;;;;5042454;28;20029;-76
2023/01/24 03:36:31;;;;;;;10.88;6.05;;;3.70;99.90;;;;;;5027642;28;20024;-78
2023/01/24 03:41:41;;;;;;;10.10;5.97;;;3.70;99.90;;;;;;5028171;28;20075;-75
2023/01/24 03:44:07;;;;;;;16.88;8.63;;;3.80;99.90;;;;;;5026476;28;20045;-74
2023/01/24 03:46:32;;;;;;;20.88;10.35;;;3.80;99.90;;;;;;5027998;28;20046;-75
2023/01/24 03:48:58;;;;;;;17.92;9.65;;;3.80;99.90;;;;;;5025217;28;20048;-75
2023/01/24 03:54:08;;;;;;;22.20;11.60;;;3.80;99.90;;;;;;5057641;28;20045;-74
2023/01/24 03:56:34;;;;;;;22.10;10.82;;;3.80;99.90;;;;;;5029317;28;20044;-74
2023/01/24 03:58:59;;;;;;;18.38;9.80;;;3.80;99.90;;;;;;5043854;28;20037;-74
2023/01/24 04:01:25;;;;;;;11.07;6.78;;;3.70;99.90;;;;;;5044186;28;20021;-74
2023/01/24 04:03:50;;;;;;;11.30;6.85;;;3.80;99.90;;;;;;5059338;28;20022;-75
2023/01/24 04:06:18;;;;;;;13.20;7.00;;;3.70;99.90;;;;;;5050705;28;20080;-74
2023/01/24 04:08:44;;;;;;;10.15;5.35;;;3.80;99.90;;;;;;5050875;28;20059;-73
2023/01/24 04:11:09;;;;;;;7.30;5.00;;;3.80;99.90;;;;;;5067057;28;20037;-74
2023/01/24 04:13:35;;;;;;;9.52;5.78;;;3.80;99.90;;;;;;5029831;28;20038;-74
2023/01/24 04:16:01;;;;;;;15.65;8.32;;;3.70;99.90;;;;;;5026334;28;20075;-74
2023/01/24 04:18:26;;;;;;;18.42;9.23;;;3.70;99.90;;;;;;5041194;28;20036;-75
2023/01/24 04:20:52;;;;;;;16.50;8.85;;;3.80;99.90;;;;;;5031261;28;20493;-75
2023/01/24 04:23:18;;;;;;;16.30;9.10;;;3.80;99.90;;;;;;5028695;28;20120;-76
2023/01/24 04:25:54;;;;;;;18.80;10.32;;;3.80;99.90;;;;;;5030410;28;20075;-74
2023/01/24 04:28:20;;;;;;;22.35;10.07;;;3.80;99.90;;;;;;5028585;28;20569;-74
2023/01/24 04:30:46;;;;;;;14.88;8.18;;;3.80;99.90;;;;;;5024202;28;20502;-75
2023/01/24 04:33:11;;;;;;;11.00;6.93;;;3.80;99.90;;;;;;5045377;28;20052;-74
2023/01/24 04:35:37;;;;;;;12.73;6.82;;;3.70;99.90;;;;;;5030596;28;20213;-75
2023/01/24 04:38:03;;;;;;;11.32;6.43;;;3.70;99.90;;;;;;5033616;28;20025;-74
2023/01/24 04:40:29;;;;;;;10.15;6.35;;;3.70;99.90;;;;;;5037500;28;20018;-74
2023/01/24 04:42:58;;;;;;;11.00;6.53;;;3.70;99.90;;;;;;5035321;28;20022;-76
2023/01/24 04:45:24;;;;;;;13.07;6.60;;;3.70;99.90;;;;;;5015618;28;20045;-74
2023/01/24 04:47:50;;;;;;;14.02;7.75;;;3.70;99.90;;;;;;5033284;28;20033;-74
2023/01/24 04:50:16;;;;;;;11.82;5.70;;;3.70;99.90;;;;;;5031245;28;20413;-75
2023/01/24 04:52:42;;;;;;;10.07;5.55;;;3.60;99.90;;;;;;5017791;28;20041;-74
2023/01/24 04:55:08;;;;;;;8.13;4.90;;;3.50;99.90;;;;;;5063797;28;20038;-75
2023/01/24 04:57:33;;;;;;;11.15;6.20;;;3.60;99.90;;;;;;5048595;28;20021;-74
2023/01/24 04:59:59;;;;;;;10.55;6.07;;;3.60;99.90;;;;;;5030303;28;20413;-78
2023/01/24 05:02:25;;;;;;;11.52;6.07;;;3.60;99.90;;;;;;5028345;28;20026;-74
2023/01/24 05:04:50;;;;;;;12.80;6.53;;;3.60;99.90;;;;;;5029247;28;20025;-74
2023/01/24 05:07:16;;;;;;;10.05;5.40;;;3.70;99.90;;;;;;5028998;28;20457;-74
2023/01/24 05:09:42;;;;;;;11.80;6.22;;;3.60;99.90;;;;;;5023212;28;20080;-74
2023/01/24 05:12:12;;;;;;;10.15;6.35;;;3.60;99.90;;;;;;5060918;28;20136;-79
2023/01/24 05:14:37;;;;;;;12.77;6.53;;;3.60;99.90;;;;;;5054475;28;20036;-74
2023/01/24 05:17:03;;;;;;;10.60;6.22;;;3.60;99.90;;;;;;5048154;28;20021;-77
2023/01/24 05:19:29;;;;;;;12.23;6.25;;;3.60;99.90;;;;;;5035203;28;21031;-75
2023/01/24 05:21:55;;;;;;;12.18;6.20;;;3.60;99.90;;;;;;5036499;28;20095;-75
2023/01/24 05:24:20;;;;;;;10.93;6.13;;;3.70;99.90;;;;;;5055580;28;20386;-76
2023/01/24 05:26:46;;;;;;;10.73;6.70;;;3.70;99.90;;;;;;5035117;28;20036;-76
2023/01/24 05:29:12;;;;;;;12.63;7.18;;;3.70;99.90;;;;;;5064450;28;20030;-74
2023/01/24 05:31:37;;;;;;;13.38;7.10;;;3.70;99.90;;;;;;5031934;28;20029;-73
2023/01/24 05:34:05;;;;;;;10.43;6.32;;;3.70;99.90;;;;;;5061061;28;20026;-75
2023/01/24 05:36:31;;;;;;;12.52;7.03;;;3.70;99.90;;;;;;5029648;28;20033;-77
2023/01/24 05:38:57;;;;;;;10.05;6.00;;;3.70;99.90;;;;;;5034061;28;20033;-75
2023/01/24 05:41:23;;;;;;;11.50;7.10;;;3.70;99.90;;;;;;5030069;28;20029;-74
2023/01/24 05:43:49;;;;;;;11.00;6.20;;;3.70;99.90;;;;;;5044866;28;20394;-74
2023/01/24 05:46:18;;;;;;;9.77;5.93;;;3.70;99.90;;;;;;5025604;28;20048;-75
2023/01/24 05:48:45;;;;;;;9.68;6.00;;;3.60;99.90;;;;;;5046431;28;20033;-74
2023/01/24 05:51:14;;;;;;;9.43;6.20;;;3.50;99.90;;;;;;5048979;28;20501;-74
2023/01/24 05:53:41;;;;;;;12.00;6.82;;;3.50;99.90;;;;;;5045286;28;20073;-77
2023/01/24 05:56:14;;;;;;;12.00;6.25;;;3.50;99.90;;;;;;5015798;28;20035;-74
2023/01/24 05:58:42;;;;;;;12.73;6.80;;;3.50;99.90;;;;;;5031701;28;20148;-75
2023/01/24 06:01:13;;;;;;;11.85;6.30;;;3.50;99.90;;;;;;5040833;28;20025;-74
2023/01/24 06:03:41;;;;;;;13.25;6.80;;;3.50;99.90;;;;;;5024580;28;20029;-74
2023/01/24 06:06:08;;;;;;;10.45;6.47;;;3.50;99.90;;;;;;5027944;28;20033;-75
2023/01/24 06:08:35;;;;;;;13.25;6.75;;;3.60;99.90;;;;;;5029458;28;20112;-74
2023/01/24 06:11:19;;;;;;;12.43;6.88;;;3.60;99.90;;;;;;5026309;28;20025;-74
2023/01/24 06:13:46;;;;;;;12.63;6.95;;;3.50;99.90;;;;;;5060079;28;20029;-75
2023/01/24 06:16:18;;;;;;;12.23;6.85;;;3.50;99.90;;;;;;5029742;28;20100;-76
2023/01/24 06:18:44;;;;;;;12.55;7.30;;;3.60;99.90;;;;;;5058392;28;20029;-80
2023/01/24 06:21:36;;;;;;;12.35;7.35;;;3.60;99.90;;;;;;5045197;28;20063;-78
2023/01/24 06:24:02;;;;;;;11.20;6.82;;;3.60;99.90;;;;;;5004798;28;20056;-77
2023/01/24 06:26:28;;;;;;;17.05;7.88;;;3.60;99.90;;;;;;5026943;28;20026;-75
2023/01/24 06:28:55;;;;;;;11.70;6.47;;;3.60;99.90;;;;;;5022090;28;20037;-74
2023/01/24 06:31:46;;;;;;;13.90;7.43;;;3.50;99.90;;;;;;5022425;28;20041;-75
2023/01/24 06:34:32;;;;;;;11.02;6.30;;;3.50;99.90;;;;;;5026025;28;20512;-74
2023/01/24 06:36:57;;;;;;;13.13;6.57;;;3.50;99.90;;;;;;5026819;28;20022;-75
2023/01/24 06:39:23;;;;;;;14.15;6.95;;;3.50;99.90;;;;;;5039036;28;20032;-74
2023/01/24 06:41:49;;;;;;;10.43;6.43;;;3.50;99.90;;;;;;5026386;28;20024;-74
2023/01/24 06:44:15;;;;;;;11.88;7.22;;;3.50;99.90;;;;;;5041500;28;20036;-74
2023/01/24 06:46:41;;;;;;;12.95;6.88;;;3.50;99.90;;;;;;5043965;28;20029;-75
2023/01/24 06:49:10;;;;;;;13.05;7.65;;;3.50;99.90;;;;;;5024639;28;20076;-79
2023/01/24 06:51:36;;;;;;;11.23;7.13;;;3.50;99.90;;;;;;5029464;28;20057;-75
2023/01/24 06:54:10;;;;;;;12.98;7.93;;;3.50;99.90;;;;;;5033685;28;20068;-74
2023/01/24 06:56:36;;;;;;;14.05;7.95;;;3.50;99.90;;;;;;5038898;28;20021;-76
2023/01/24 06:59:01;;;;;;;13.90;7.13;;;3.50;99.90;;;;;;5034581;28;20025;-77
2023/01/24 07:01:28;;;;;;;14.15;7.13;;;3.50;99.90;;;;;;5029989;28;20024;-75
2023/01/24 07:03:54;;;;;;;12.85;7.25;;;3.50;99.90;;;;;;5043962;28;20029;-79
2023/01/24 07:06:22;;;;;;;11.65;6.95;;;3.50;99.90;;;;;;5026692;28;20033;-75
2023/01/24 07:08:47;;;;;;;12.13;6.40;;;3.50;99.90;;;;;;5024529;28;20535;-73
2023/01/24 07:11:13;;;;;;;10.40;6.70;;;3.50;99.90;;;;;;5024507;28;20029;-75
2023/01/24 07:13:39;;;;;;;13.00;7.10;;;3.50;99.90;;;;;;5028235;28;20376;-75
2023/01/24 07:16:05;;;;;;;11.27;6.68;;;4.00;99.90;;;;;;5022304;28;20033;-74
2023/01/24 07:18:31;;;;;;;11.85;7.38;;;3.80;99.90;;;;;;5023996;28;20025;-74
2023/01/24 07:20:57;;;;;;;12.15;7.40;;;3.70;99.90;;;;;;5025555;28;20500;-74
2023/01/24 07:23:25;;;;;;;14.90;7.82;;;3.60;99.90;;;;;;5039034;28;20032;-76
2023/01/24 07:25:52;;;;;;;13.02;7.68;;;3.60;99.90;;;;;;5010473;28;20037;-75
2023/01/24 07:28:18;;;;;;;10.75;7.10;;;3.70;99.90;;;;;;5012780;28;20034;-79
2023/01/24 07:30:45;;;;;;;13.88;7.80;;;3.50;99.90;;;;;;5042975;28;20055;-75
2023/01/24 07:33:15;;;;;;;14.32;8.40;;;3.50;99.90;;;;;;5025691;28;20033;-74
2023/01/24 07:35:42;;;;;;;11.75;7.43;;;3.50;99.90;;;;;;5022737;28;20026;-74
2023/01/24 07:38:07;;;;;;;12.95;7.85;;;3.50;99.90;;;;;;5027128;28;20080;-74
2023/01/24 07:40:33;;;;;;;13.20;7.75;;;3.40;99.90;;;;;;5025424;28;20486;-74
2023/01/24 07:43:00;;;;;;;13.88;8.25;;;3.40;99.90;;;;;;5024766;28;20239;-74
2023/01/24 07:45:26;;;;;;;15.95;8.18;;;3.50;99.90;;;;;;5026079;28;20044;-74
2023/01/24 07:47:56;;;;;;;14.88;7.95;;;3.50;99.90;;;;;;5025568;28;20516;-74
2023/01/24 07:50:23;;;;;;;15.95;8.63;;;3.50;99.90;;;;;;5034882;28;20044;-75
2023/01/24 07:52:53;;;;;;;16.60;8.90;;;3.50;99.90;;;;;;5022739;28;20037;-76
2023/01/24 07:55:20;;;;;;;18.08;8.93;;;3.50;99.90;;;;;;5026779;28;20021;-78
2023/01/24 07:57:46;;;;;;;18.23;9.95;;;3.50;99.90;;;;;;5045693;28;20022;-75
2023/01/24 08:00:13;;;;;;;17.92;9.82;;;3.60;99.90;;;;;;5026693;28;20101;-75
2023/01/24 08:02:40;;;;;;;17.45;9.45;;;3.60;99.90;;;;;;5034298;28;20025;-75
2023/01/24 08:05:06;;;;;;;16.10;9.45;;;3.60;99.90;;;;;;5028642;28;20029;-74
2023/01/24 08:07:34;;;;;;;12.90;8.18;;;3.60;99.90;;;;;;5023334;28;20021;-74
2023/01/24 08:10:00;;;;;;;14.35;8.48;;;3.50;99.90;;;;;;5027164;28;20033;-75
2023/01/24 08:12:25;;;;;;;13.50;8.70;;;3.50;99.90;;;;;;5027003;28;20030;-78
2023/01/24 08:14:51;;;;;;;13.80;8.43;;;3.50;99.90;;;;;;5043644;28;20025;-78
2023/01/24 08:17:18;;;;;;;16.15;8.48;;;3.50;99.90;;;;;;5029124;28;20029;-79
2023/01/24 08:19:44;;;;;;;15.00;8.27;;;3.50;99.90;;;;;;5027808;28;20479;-76
2023/01/24 08:22:10;;;;;;;15.60;8.95;;;3.40;99.90;;;;;;5026239;28;20163;-79
2023/01/24 08:24:35;;;;;;;17.23;8.23;;;3.40;99.90;;;;;;5032175;28;20044;-78
2023/01/24 08:27:02;;;;;;;17.08;9.80;;;3.40;99.90;;;;;;5033366;28;20029;-75
2023/01/24 08:29:28;;;;;;;13.73;8.50;;;3.30;99.90;;;;;;5026809;28;20025;-75
2023/01/24 08:31:54;;;;;;;15.05;9.07;;;3.30;99.90;;;;;;5026454;28;20056;-74
2023/01/24 08:34:20;;;;;;;17.55;9.93;;;3.20;99.90;;;;;;5060281;28;20034;-75
2023/01/24 08:36:46;;;;;;;16.95;8.95;;;3.20;99.90;;;;;;5031374;28;20021;-75
2023/01/24 08:39:12;;;;;;;14.43;9.18;;;3.30;99.90;;;;;;5048177;28;20498;-74
2023/01/24 08:41:38;;;;;;;12.27;7.95;;;3.20;99.90;;;;;;5032635;28;20042;-75
2023/01/24 08:44:04;;;;;;;16.52;7.72;;;3.30;99.90;;;;;;5029683;28;20025;-74
2023/01/24 08:46:31;;;;;;;14.50;7.68;;;3.30;99.90;;;;;;5032300;28;20045;-74
2023/01/24 08:48:57;;;;;;;13.27;8.80;;;3.40;99.90;;;;;;5036233;28;20076;-74
2023/01/24 08:51:24;;;;;;;11.30;7.45;;;3.40;99.90;;;;;;5032177;28;20029;-74
2023/01/24 08:53:49;;;;;;;15.10;7.85;;;3.60;99.90;;;;;;5032782;28;20505;-75
2023/01/24 08:56:15;;;;;;;12.82;7.47;;;3.50;99.90;;;;;;5048567;28;20151;-75
2023/01/24 08:58:42;;;;;;;13.85;8.27;;;3.50;99.90;;;;;;5030200;28;20029;-75
2023/01/24 09:01:09;;;;;;;13.95;8.15;;;3.40;99.90;;;;;;5029290;28;20061;-74
2023/01/24 09:03:36;;;;;;;16.27;8.98;;;3.40;99.90;;;;;;5031439;28;20022;-75
2023/01/24 09:06:02;;;;;;;16.25;8.90;;;3.40;99.90;;;;;;5032500;28;20045;-76
2023/01/24 09:08:28;;;;;;;16.88;9.43;;;3.40;99.90;;;;;;5030952;28;20476;-76
2023/01/24 09:10:58;;;;;;;17.50;9.18;;;3.40;99.90;;;;;;5032715;28;20029;-75
2023/01/24 09:13:24;;;;;;;15.88;8.50;;;3.40;99.90;;;;;;5033492;28;20037;-75
2023/01/24 09:15:50;;;;;;;12.82;7.55;;;3.40;99.90;;;;;;5015234;28;20489;-76
2023/01/24 09:18:16;;;;;;;14.63;8.18;;;3.40;99.90;;;;;;5014138;28;20036;-73
2023/01/24 09:20:42;;;;;;;14.52;7.88;;;3.40;99.90;;;;;;5031683;28;20068;-74
2023/01/24 09:23:14;;;;;;;15.45;8.18;;;3.40;99.90;;;;;;5031245;28;20038;-76
2023/01/24 09:25:41;;;;;;;13.75;8.25;;;3.30;99.90;;;;;;5047383;28;20029;-78
2023/01/24 09:28:07;;;;;;;16.60;9.30;;;3.40;99.90;;;;;;5028373;28;20442;-74
2023/01/24 09:30:34;;;;;;;13.45;8.23;;;3.40;99.90;;;;;;5065094;28;20235;-73
2023/01/24 09:33:04;;;;;;;14.82;7.90;;;3.40;99.90;;;;;;5030194;28;20489;-74
2023/01/24 09:35:30;;;;;;;15.77;8.67;;;3.40;99.90;;;;;;5030550;28;20343;-75
2023/01/24 09:37:56;;;;;;;14.45;8.43;;;3.50;99.90;;;;;;5032280;28;20272;-75
2023/01/24 09:40:40;;;;;;;13.85;7.78;;;3.50;99.90;;;;;;5029290;28;20033;-75
2023/01/24 09:43:30;;;;;;;14.25;8.02;;;3.40;99.90;;;;;;5047334;28;20104;-76
2023/01/24 09:46:05;;;;;;;13.50;7.88;;;3.50;99.90;;;;;;5029951;28;20036;-75
2023/01/24 09:48:33;;;;;;;12.90;7.78;;;3.50;99.90;;;;;;5047251;28;20033;-76
2023/01/24 09:51:09;;;;;;;15.88;8.20;;;3.50;99.90;;;;;;5017896;28;20041;-74
2023/01/24 09:53:42;;;;;;;14.38;7.95;;;3.50;99.90;;;;;;5062733;28;20092;-82
2023/01/24 09:56:26;;;;;;;16.27;9.32;;;3.50;99.90;;;;;;5060341;28;20049;-79
2023/01/24 09:59:21;;;;;;;17.45;8.60;;;3.50;99.90;;;;;;5061836;28;20025;-78
2023/01/24 10:01:51;;;;;;;16.40;8.63;;;3.40;99.90;;;;;;5072495;28;20493;-74
2023/01/24 10:04:36;;;;;;;14.30;8.30;;;3.50;99.90;;;;;;5031680;28;20401;-74
2023/01/24 10:07:20;;;;;;;17.50;8.95;;;3.40;99.90;;;;;;5031304;28;20025;-74
2023/01/24 10:10:02;;;;;;;13.50;8.18;;;3.30;99.90;;;;;;5030273;28;20056;-75
2023/01/24 10:13:10;;;;;;;16.73;8.68;;;3.20;99.90;;;;;;5045113;28;20112;-74
2023/01/24 10:16:10;;;;;;;17.35;8.52;;;3.20;99.90;;;;;;5013242;28;20505;-74
2023/01/24 10:18:45;;;;;;;17.50;8.82;;;3.30;99.90;;;;;;5028174;28;20033;-74
2023/01/24 10:21:25;;;;;;;15.88;10.05;;;3.40;99.90;;;;;;5029828;28;20022;-76
2023/01/24 10:24:08;;;;;;;20.35;9.95;;;3.40;99.90;;;;;;5045440;28;20029;-74
2023/01/24 10:26:42;;;;;;;15.50;8.10;;;3.50;99.90;;;;;;5026704;28;20107;-82
2023/01/24 10:29:20;;;;;;;14.45;8.23;;;3.50;99.90;;;;;;5028413;28;20029;-74
2023/01/24 10:32:11;;;;;;;22.65;9.85;;;3.50;99.90;;;;;;5026209;28;20410;-74
2023/01/24 10:34:46;;;;;;;16.27;8.60;;;3.50;99.90;;;;;;5044736;28;20183;-75
2023/01/24 10:37:23;;;;;;;18.38;8.82;;;3.50;99.90;;;;;;5044495;28;20034;-75
2023/01/24 10:39:49;;;;;;;15.05;8.75;;;3.50;99.90;;;;;;5045082;28;20032;-74
2023/01/24 10:42:21;;;;;;;18.77;8.65;;;3.40;99.90;;;;;;5027770;28;20025;-74
2023/01/24 10:44:47;;;;;;;17.48;8.55;;;3.50;99.90;;;;;;5028351;28;20040;-74
2023/01/24 10:47:41;;;;;;;15.55;8.93;;;3.50;99.90;;;;;;5028298;28;20282;-74
2023/01/24 10:50:13;;;;;;;16.95;9.00;;;3.50;99.90;;;;;;5028050;28;20040;-74
2023/01/24 10:52:39;;;;;;;16.40;8.68;;;3.50;99.90;;;;;;5044687;28;20033;-74
2023/01/24 10:55:25;;;;;;;16.45;9.05;;;3.60;99.90;;;;;;5034902;28;20034;-75
2023/01/24 10:57:54;;;;;;;13.52;8.63;;;3.60;99.90;;;;;;5029354;28;20021;-75
2023/01/24 11:00:35;;;;;;;13.52;8.25;;;3.60;99.90;;;;;;5027021;28;20405;-75
2023/01/24 11:03:21;;;;;;;15.10;8.68;;;3.60;99.90;;;;;;5027494;28;20037;-75
2023/01/24 11:05:53;;;;;;;16.25;8.10;;;3.60;99.90;;;;;;5012269;28;20029;-76
2023/01/24 11:08:24;;;;;;;15.18;8.10;;;3.60;99.90;;;;;;5059543;28;20414;-75
2023/01/24 11:10:53;;;;;;;15.30;7.78;;;3.60;99.90;;;;;;5026833;28;20124;-75
2023/01/24 11:13:38;;;;;;;12.77;8.07;;;3.50;99.90;;;;;;5012761;28;20485;-75
2023/01/24 11:16:16;;;;;;;17.73;8.85;;;3.60;99.90;;;;;;5032309;28;20933;-75
2023/01/24 11:19:04;;;;;;;15.93;8.05;;;3.50;99.90;;;;;;5026942;28;20303;-74
2023/01/24 11:21:31;;;;;;;15.85;8.85;;;3.40;99.90;;;;;;5027928;28;20080;-74
2023/01/24 11:24:06;;;;;;;14.30;8.68;;;3.40;99.90;;;;;;5029058;28;20029;-74
2023/01/24 11:26:52;;;;;;;16.35;8.40;;;3.40;99.90;;;;;;5027051;28;20051;-75
2023/01/24 11:29:18;;;;;;;15.13;8.52;;;3.40;99.90;;;;;;5024912;28;20037;-75
2023/01/24 11:31:47;;;;;;;15.20;8.32;;;3.40;99.90;;;;;;5044200;28;20029;-74
2023/01/24 11:34:41;;;;;;;13.45;8.70;;;3.40;99.90;;;;;;5029272;28;20481;-74
2023/01/24 11:37:35;;;;;;;15.80;8.38;;;3.50;99.90;;;;;;5027761;28;20039;-74
2023/01/24 11:40:38;;;;;;;12.85;6.50;;;3.50;99.90;;;;;;5027228;28;20025;-77
2023/01/24 11:43:33;;;;;;;15.68;8.60;;;3.90;99.90;;;;;;5029322;28;20038;-74
2023/01/24 11:46:14;;;;;;;14.93;8.80;;;3.80;99.90;;;;;;5031157;28;20041;-74
2023/01/24 11:48:56;;;;;;;14.00;8.25;;;3.70;99.90;;;;;;5062807;28;20037;-77
2023/01/24 11:51:39;;;;;;;16.48;8.20;;;3.70;99.90;;;;;;5047906;28;20029;-74
2023/01/24 11:54:22;;;;;;;620.13;269.45;;;3.70;99.90;;;;;;5037818;28;20025;-75
2023/01/24 11:57:14;;;;;;;1565.55;759.15;;;4.10;99.90;;;;;;5032526;28;20031;-74
2023/01/24 12:00:24;;;;;;;67.97;40.60;;;4.00;99.90;;;;;;5008391;28;20041;-74
2023/01/24 12:02:56;;;;;;;208.82;79.93;;;3.80;99.90;;;;;;5013146;28;20091;-79
2023/01/24 12:05:59;;;;;;;160.07;93.32;;;3.80;99.90;;;;;;5029322;28;20053;-76
2023/01/24 12:09:06;;;;;;;18.60;9.80;;;3.80;99.90;;;;;;5045795;28;20029;-76
2023/01/24 12:11:39;;;;;;;18.98;8.57;;;3.80;99.90;;;;;;5027989;28;20116;-79
2023/01/24 12:14:42;;;;;;;14.52;8.15;;;3.70;99.90;;;;;;5031558;28;20033;-78
2023/01/24 12:17:37;;;;;;;17.48;9.48;;;3.70;99.90;;;;;;5064126;28;20157;-79
2023/01/24 12:20:47;;;;;;;15.88;9.30;;;3.70;99.90;;;;;;5048174;28;20100;-75
2023/01/24 12:23:20;;;;;;;13.88;8.63;;;3.60;99.90;;;;;;4990552;28;20133;-78
2023/01/24 12:25:48;;;;;;;19.02;9.57;;;3.60;99.90;;;;;;4991019;28;20053;-75
2023/01/24 12:28:25;;;;;;;17.83;9.15;;;3.60;99.90;;;;;;5019160;28;20044;-75
2023/01/24 12:30:56;;;;;;;19.48;9.13;;;3.70;99.90;;;;;;5032910;28;20029;-75
2023/01/24 12:33:31;;;;;;;19.20;10.02;;;3.70;99.90;;;;;;5032513;28;20035;-78
2023/01/24 12:36:29;;;;;;;20.35;9.40;;;3.60;99.90;;;;;;5033284;28;20032;-79
2023/01/24 12:38:59;;;;;;;18.05;8.90;;;3.60;99.90;;;;;;5030597;28;20116;-77
2023/01/24 12:41:30;;;;;;;17.17;9.30;;;3.60;99.90;;;;;;5031532;28;20076;-77
2023/01/24 12:44:32;;;;;;;17.38;8.75;;;3.60;99.90;;;;;;5030789;28;20401;-76
2023/01/24 12:47:01;;;;;;;15.95;9.45;;;3.50;99.90;;;;;;5031447;28;20055;-75
2023/01/24 12:49:30;;;;;;;19.70;9.35;;;3.50;99.90;;;;;;5027241;28;20473;-75
2023/01/24 12:52:24;;;;;;;15.60;9.07;;;3.50;99.90;;;;;;5031527;28;20029;-74
2023/01/24 12:55:09;;;;;;;16.50;9.30;;;3.50;99.90;;;;;;5030893;28;20022;-74
2023/01/24 12:57:45;;;;;;;17.05;9.65;;;3.50;99.90;;;;;;5045342;28;20064;-73
2023/01/24 13:00:19;;;;;;;18.63;9.77;;;3.60;99.90;;;;;;5028678;28;20638;-73
2023/01/24 13:03:06;;;;;;;17.73;9.63;;;3.60;99.90;;;;;;5046141;28;20504;-75
2023/01/24 13:05:41;;;;;;;16.08;9.68;;;3.60;99.90;;;;;;5047581;28;20132;-75
2023/01/24 13:08:13;;;;;;;18.80;10.13;;;3.70;99.90;;;;;;5046433;28;20592;-75
2023/01/24 13:11:21;;;;;;;13.82;9.40;;;3.70;99.90;;;;;;5032007;28;20088;-76
2023/01/24 13:14:02;;;;;;;17.42;9.60;;;3.70;99.90;;;;;;5028166;28;20025;-74
2023/01/24 13:16:43;;;;;;;17.42;9.55;;;3.60;99.90;;;;;;5046176;28;20037;-73
2023/01/24 13:19:27;;;;;;;;;;;3.70;99.90;;;;;;5028710;28;20472;-74
2023/01/24 13:21:56;;;;;;;16.88;9.80;;;3.70;99.90;;;;;;5030781;28;20423;-74
2023/01/24 13:24:48;;;;;;;16.25;9.57;;;3.60;99.90;;;;;;5031742;28;20094;-74
2023/01/24 13:27:32;;;;;;;16.67;10.57;;;3.60;99.90;;;;;;5032484;28;20128;-79
2023/01/24 13:30:00;;;;;;;13.52;9.00;;;3.70;99.90;;;;;;5030995;28;20037;-74
2023/01/24 13:32:27;;;;;;;19.92;10.07;;;3.60;99.90;;;;;;5048015;28;20079;-75
2023/01/24 13:34:55;;;;;;;15.48;9.52;;;3.60;99.90;;;;;;5048397;28;20101;-75
2023/01/24 13:37:25;;;;;;;16.25;9.32;;;3.50;99.90;;;;;;5030723;28;20448;-80
2023/01/24 13:40:22;;;;;;;15.70;9.13;;;3.50;99.90;;;;;;5044818;28;20032;-79
2023/01/24 13:42:48;;;;;;;17.15;9.43;;;3.60;99.90;;;;;;5029532;28;20044;-74
2023/01/24 13:45:25;;;;;;;16.40;9.50;;;3.30;99.90;;;;;;5029117;28;20537;-79